sensor_id;sensor_type;location;lat;lon;timestamp;P1;durP1;ratioP1;P2;durP2;ratioP2
75932;SDS011;64803;52.356;5.310;2023-07-22T00:00:21;13.95;;;5.28;;
75932;SDS011;64803;52.356;5.310;2023-07-22T00:02:48;14.55;;;5.50;;
75932;SDS011;64803;52.356;5.310;2023-07-22T00:05:15;16.60;;;6.10;;
75932;SDS011;64803;52.356;5.310;2023-07-22T00:07:41;16.40;;;5.63;;
75932;SDS011;64803;52.356;5.310;2023-07-22T00:10:07;16.20;;;5.75;;
75932;SDS011;64803;52.356;5.310;2023-07-22T00:12:34;14.82;;;5.75;;
75932;SDS011;64803;52.356;5.310;2023-07-22T00:15:00;16.55;;;6.50;;
75932;SDS011;64803;52.356;5.310;2023-07-22T00:17:26;18.25;;;5.78;;
75932;SDS011;64803;52.356;5.310;2023-07-22T00:19:52;13.60;;;5.80;;
75932;SDS011;64803;52.356;5.310;2023-07-22T00:22:18;13.75;;;5.63;;
75932;SDS011;64803;52.356;5.310;2023-07-22T00:24:45;14.07;;;5.53;;
75932;SDS011;64803;52.356;5.310;2023-07-22T00:27:11;14.38;;;6.30;;
75932;SDS011;64803;52.356;5.310;2023-07-22T00:29:37;17.65;;;5.97;;
75932;SDS011;64803;52.356;5.310;2023-07-22T00:32:04;16.63;;;5.47;;
75932;SDS011;64803;52.356;5.310;2023-07-22T00:34:32;18.05;;;6.20;;
75932;SDS011;64803;52.356;5.310;2023-07-22T00:36:58;17.20;;;5.53;;
75932;SDS011;64803;52.356;5.310;2023-07-22T00:39:24;15.20;;;6.53;;
75932;SDS011;64803;52.356;5.310;2023-07-22T00:41:50;16.50;;;6.63;;
75932;SDS011;64803;52.356;5.310;2023-07-22T00:44:16;19.23;;;6.22;;
75932;SDS011;64803;52.356;5.310;2023-07-22T00:46:42;18.45;;;6.88;;
75932;SDS011;64803;52.356;5.310;2023-07-22T00:49:09;18.15;;;6.95;;
75932;SDS011;64803;52.356;5.310;2023-07-22T00:51:35;20.88;;;7.13;;
75932;SDS011;64803;52.356;5.310;2023-07-22T00:54:01;20.02;;;6.97;;
75932;SDS011;64803;52.356;5.310;2023-07-22T00:56:29;19.08;;;6.97;;
75932;SDS011;64803;52.356;5.310;2023-07-22T00:59:01;17.77;;;7.00;;
75932;SDS011;64803;52.356;5.310;2023-07-22T01:01:28;17.60;;;6.78;;
75932;SDS011;64803;52.356;5.310;2023-07-22T01:03:54;17.85;;;6.50;;
75932;SDS011;64803;52.356;5.310;2023-07-22T01:06:20;17.73;;;6.50;;
75932;SDS011;64803;52.356;5.310;2023-07-22T01:08:47;16.95;;;5.57;;
75932;SDS011;64803;52.356;5.310;2023-07-22T01:11:13;17.38;;;6.38;;
75932;SDS011;64803;52.356;5.310;2023-07-22T01:16:07;14.65;;;6.20;;
75932;SDS011;64803;52.356;5.310;2023-07-22T01:18:33;14.25;;;5.32;;
75932;SDS011;64803;52.356;5.310;2023-07-22T01:21:00;15.38;;;5.78;;
75932;SDS011;64803;52.356;5.310;2023-07-22T01:23:26;17.02;;;6.30;;
75932;SDS011;64803;52.356;5.310;2023-07-22T01:25:52;15.48;;;5.93;;
75932;SDS011;64803;52.356;5.310;2023-07-22T01:28:20;17.27;;;6.40;;
75932;SDS011;64803;52.356;5.310;2023-07-22T01:30:46;14.88;;;5.85;;
75932;SDS011;64803;52.356;5.310;2023-07-22T01:33:12;17.48;;;5.93;;
75932;SDS011;64803;52.356;5.310;2023-07-22T01:35:38;16.15;;;6.90;;
75932;SDS011;64803;52.356;5.310;2023-07-22T01:38:04;19.05;;;6.35;;
75932;SDS011;64803;52.356;5.310;2023-07-22T01:40:30;19.92;;;6.47;;
75932;SDS011;64803;52.356;5.310;2023-07-22T01:42:56;23.55;;;7.47;;
75932;SDS011;64803;52.356;5.310;2023-07-22T01:45:22;16.40;;;6.38;;
75932;SDS011;64803;52.356;5.310;2023-07-22T01:47:48;20.48;;;6.90;;
75932;SDS011;64803;52.356;5.310;2023-07-22T01:50:15;20.50;;;7.07;;
75932;SDS011;64803;52.356;5.310;2023-07-22T01:52:41;18.55;;;5.93;;
75932;SDS011;64803;52.356;5.310;2023-07-22T01:55:07;23.77;;;7.05;;
75932;SDS011;64803;52.356;5.310;2023-07-22T01:57:36;18.52;;;6.72;;
75932;SDS011;64803;52.356;5.310;2023-07-22T02:00:02;19.10;;;7.35;;
75932;SDS011;64803;52.356;5.310;2023-07-22T02:02:38;19.88;;;7.55;;
75932;SDS011;64803;52.356;5.310;2023-07-22T02:05:05;23.83;;;8.23;;
75932;SDS011;64803;52.356;5.310;2023-07-22T02:07:31;21.65;;;7.30;;
75932;SDS011;64803;52.356;5.310;2023-07-22T02:09:57;15.40;;;5.80;;
75932;SDS011;64803;52.356;5.310;2023-07-22T02:12:23;22.63;;;7.72;;
75932;SDS011;64803;52.356;5.310;2023-07-22T02:14:50;19.75;;;7.07;;
75932;SDS011;64803;52.356;5.310;2023-07-22T02:17:16;23.17;;;8.27;;
75932;SDS011;64803;52.356;5.310;2023-07-22T02:19:42;22.55;;;7.00;;
75932;SDS011;64803;52.356;5.310;2023-07-22T02:22:08;22.67;;;7.05;;
75932;SDS011;64803;52.356;5.310;2023-07-22T02:24:34;22.92;;;8.20;;
75932;SDS011;64803;52.356;5.310;2023-07-22T02:27:00;23.75;;;8.35;;
75932;SDS011;64803;52.356;5.310;2023-07-22T02:29:26;24.17;;;8.02;;
75932;SDS011;64803;52.356;5.310;2023-07-22T02:31:52;23.33;;;8.20;;
75932;SDS011;64803;52.356;5.310;2023-07-22T02:34:18;20.15;;;7.13;;
75932;SDS011;64803;52.356;5.310;2023-07-22T02:36:44;27.60;;;7.95;;
75932;SDS011;64803;52.356;5.310;2023-07-22T02:39:10;31.05;;;9.65;;
75932;SDS011;64803;52.356;5.310;2023-07-22T02:41:36;26.98;;;8.93;;
75932;SDS011;64803;52.356;5.310;2023-07-22T02:44:02;30.42;;;9.75;;
75932;SDS011;64803;52.356;5.310;2023-07-22T02:46:31;29.27;;;10.32;;
75932;SDS011;64803;52.356;5.310;2023-07-22T02:48:58;33.65;;;10.65;;
75932;SDS011;64803;52.356;5.310;2023-07-22T02:51:24;35.80;;;11.38;;
75932;SDS011;64803;52.356;5.310;2023-07-22T02:53:51;39.45;;;13.13;;
75932;SDS011;64803;52.356;5.310;2023-07-22T02:56:17;41.35;;;14.07;;
75932;SDS011;64803;52.356;5.310;2023-07-22T02:58:43;47.97;;;13.30;;
75932;SDS011;64803;52.356;5.310;2023-07-22T03:01:09;46.33;;;13.77;;
75932;SDS011;64803;52.356;5.310;2023-07-22T03:03:36;36.42;;;12.80;;
75932;SDS011;64803;52.356;5.310;2023-07-22T03:06:02;43.28;;;13.90;;
75932;SDS011;64803;52.356;5.310;2023-07-22T03:08:32;47.90;;;14.35;;
75932;SDS011;64803;52.356;5.310;2023-07-22T03:10:58;40.60;;;14.52;;
75932;SDS011;64803;52.356;5.310;2023-07-22T03:13:24;37.13;;;13.68;;
75932;SDS011;64803;52.356;5.310;2023-07-22T03:15:55;39.50;;;14.18;;
75932;SDS011;64803;52.356;5.310;2023-07-22T03:18:22;41.70;;;14.40;;
75932;SDS011;64803;52.356;5.310;2023-07-22T03:20:48;45.45;;;15.20;;
75932;SDS011;64803;52.356;5.310;2023-07-22T03:23:15;38.55;;;14.77;;
75932;SDS011;64803;52.356;5.310;2023-07-22T03:25:41;38.92;;;13.23;;
75932;SDS011;64803;52.356;5.310;2023-07-22T03:28:07;36.75;;;13.07;;
75932;SDS011;64803;52.356;5.310;2023-07-22T03:30:33;37.78;;;13.75;;
75932;SDS011;64803;52.356;5.310;2023-07-22T03:32:59;41.30;;;13.57;;
75932;SDS011;64803;52.356;5.310;2023-07-22T03:35:26;43.63;;;13.80;;
75932;SDS011;64803;52.356;5.310;2023-07-22T03:37:54;47.10;;;14.30;;
75932;SDS011;64803;52.356;5.310;2023-07-22T03:40:20;43.17;;;14.73;;
75932;SDS011;64803;52.356;5.310;2023-07-22T03:42:50;38.85;;;14.65;;
75932;SDS011;64803;52.356;5.310;2023-07-22T03:45:17;43.30;;;15.55;;
75932;SDS011;64803;52.356;5.310;2023-07-22T03:47:44;40.15;;;14.60;;
75932;SDS011;64803;52.356;5.310;2023-07-22T03:52:37;36.05;;;13.40;;
75932;SDS011;64803;52.356;5.310;2023-07-22T03:55:03;35.05;;;13.60;;
75932;SDS011;64803;52.356;5.310;2023-07-22T03:57:31;42.83;;;13.95;;
75932;SDS011;64803;52.356;5.310;2023-07-22T03:59:57;39.03;;;13.75;;
75932;SDS011;64803;52.356;5.310;2023-07-22T04:02:24;36.45;;;12.55;;
75932;SDS011;64803;52.356;5.310;2023-07-22T04:04:51;37.28;;;12.45;;
75932;SDS011;64803;52.356;5.310;2023-07-22T04:07:20;39.42;;;13.00;;
75932;SDS011;64803;52.356;5.310;2023-07-22T04:09:47;38.35;;;13.25;;
75932;SDS011;64803;52.356;5.310;2023-07-22T04:12:13;38.97;;;13.52;;
75932;SDS011;64803;52.356;5.310;2023-07-22T04:14:40;36.78;;;13.27;;
75932;SDS011;64803;52.356;5.310;2023-07-22T04:17:06;38.85;;;12.80;;
75932;SDS011;64803;52.356;5.310;2023-07-22T04:19:32;38.03;;;12.60;;
75932;SDS011;64803;52.356;5.310;2023-07-22T04:21:59;33.72;;;12.45;;
75932;SDS011;64803;52.356;5.310;2023-07-22T04:24:30;31.85;;;11.27;;
75932;SDS011;64803;52.356;5.310;2023-07-22T04:26:57;35.30;;;12.05;;
75932;SDS011;64803;52.356;5.310;2023-07-22T04:29:25;37.33;;;11.90;;
75932;SDS011;64803;52.356;5.310;2023-07-22T04:31:56;34.42;;;12.57;;
75932;SDS011;64803;52.356;5.310;2023-07-22T04:34:31;37.95;;;12.20;;
75932;SDS011;64803;52.356;5.310;2023-07-22T04:36:58;32.88;;;11.93;;
75932;SDS011;64803;52.356;5.310;2023-07-22T04:39:24;31.65;;;11.02;;
75932;SDS011;64803;52.356;5.310;2023-07-22T04:41:50;31.75;;;11.77;;
75932;SDS011;64803;52.356;5.310;2023-07-22T04:44:17;30.10;;;11.25;;
75932;SDS011;64803;52.356;5.310;2023-07-22T04:46:44;29.65;;;11.40;;
75932;SDS011;64803;52.356;5.310;2023-07-22T04:49:11;33.60;;;11.77;;
75932;SDS011;64803;52.356;5.310;2023-07-22T04:51:37;31.85;;;11.80;;
75932;SDS011;64803;52.356;5.310;2023-07-22T04:54:03;30.83;;;10.75;;
75932;SDS011;64803;52.356;5.310;2023-07-22T04:56:29;31.27;;;10.40;;
75932;SDS011;64803;52.356;5.310;2023-07-22T04:58:56;27.23;;;9.93;;
75932;SDS011;64803;52.356;5.310;2023-07-22T05:01:22;25.52;;;10.23;;
75932;SDS011;64803;52.356;5.310;2023-07-22T05:03:48;26.55;;;9.55;;
75932;SDS011;64803;52.356;5.310;2023-07-22T05:06:14;23.58;;;9.05;;
75932;SDS011;64803;52.356;5.310;2023-07-22T05:08:40;26.40;;;9.13;;
75932;SDS011;64803;52.356;5.310;2023-07-22T05:11:06;23.00;;;9.13;;
75932;SDS011;64803;52.356;5.310;2023-07-22T05:13:33;21.48;;;8.90;;
75932;SDS011;64803;52.356;5.310;2023-07-22T05:15:59;22.58;;;8.00;;
75932;SDS011;64803;52.356;5.310;2023-07-22T05:18:25;22.20;;;7.95;;
75932;SDS011;64803;52.356;5.310;2023-07-22T05:20:51;21.27;;;7.43;;
75932;SDS011;64803;52.356;5.310;2023-07-22T05:23:17;21.98;;;7.68;;
75932;SDS011;64803;52.356;5.310;2023-07-22T05:25:43;20.52;;;7.57;;
75932;SDS011;64803;52.356;5.310;2023-07-22T05:28:09;18.23;;;7.15;;
75932;SDS011;64803;52.356;5.310;2023-07-22T05:30:36;20.20;;;6.53;;
75932;SDS011;64803;52.356;5.310;2023-07-22T05:33:02;18.48;;;6.88;;
75932;SDS011;64803;52.356;5.310;2023-07-22T05:35:28;17.08;;;6.10;;
75932;SDS011;64803;52.356;5.310;2023-07-22T05:37:54;16.33;;;6.32;;
75932;SDS011;64803;52.356;5.310;2023-07-22T05:40:20;17.33;;;6.45;;
75932;SDS011;64803;52.356;5.310;2023-07-22T05:42:46;14.40;;;5.43;;
75932;SDS011;64803;52.356;5.310;2023-07-22T05:45:12;17.08;;;5.68;;
75932;SDS011;64803;52.356;5.310;2023-07-22T05:47:40;16.20;;;5.55;;
75932;SDS011;64803;52.356;5.310;2023-07-22T05:50:07;14.23;;;5.30;;
75932;SDS011;64803;52.356;5.310;2023-07-22T05:52:33;13.38;;;5.82;;
75932;SDS011;64803;52.356;5.310;2023-07-22T05:54:59;14.75;;;6.68;;
75932;SDS011;64803;52.356;5.310;2023-07-22T05:57:26;15.73;;;5.45;;
75932;SDS011;64803;52.356;5.310;2023-07-22T05:59:52;17.92;;;6.05;;
75932;SDS011;64803;52.356;5.310;2023-07-22T06:02:18;15.55;;;5.93;;
75932;SDS011;64803;52.356;5.310;2023-07-22T06:04:44;15.75;;;5.82;;
75932;SDS011;64803;52.356;5.310;2023-07-22T06:07:10;16.63;;;5.97;;
75932;SDS011;64803;52.356;5.310;2023-07-22T06:09:36;15.77;;;6.65;;
75932;SDS011;64803;52.356;5.310;2023-07-22T06:12:02;15.75;;;6.22;;
75932;SDS011;64803;52.356;5.310;2023-07-22T06:14:29;17.45;;;6.30;;
75932;SDS011;64803;52.356;5.310;2023-07-22T06:16:55;20.63;;;7.15;;
75932;SDS011;64803;52.356;5.310;2023-07-22T06:19:21;22.88;;;8.40;;
75932;SDS011;64803;52.356;5.310;2023-07-22T06:21:47;20.27;;;7.28;;
75932;SDS011;64803;52.356;5.310;2023-07-22T06:24:13;20.75;;;8.32;;
75932;SDS011;64803;52.356;5.310;2023-07-22T06:26:39;22.50;;;7.72;;
75932;SDS011;64803;52.356;5.310;2023-07-22T06:29:05;28.65;;;8.95;;
75932;SDS011;64803;52.356;5.310;2023-07-22T06:31:31;25.90;;;8.80;;
75932;SDS011;64803;52.356;5.310;2023-07-22T06:33:57;24.05;;;9.10;;
75932;SDS011;64803;52.356;5.310;2023-07-22T06:36:25;23.42;;;8.63;;
75932;SDS011;64803;52.356;5.310;2023-07-22T06:38:51;21.67;;;8.27;;
75932;SDS011;64803;52.356;5.310;2023-07-22T06:41:18;22.42;;;8.23;;
75932;SDS011;64803;52.356;5.310;2023-07-22T06:43:44;20.65;;;8.15;;
75932;SDS011;64803;52.356;5.310;2023-07-22T06:46:10;25.38;;;9.05;;
75932;SDS011;64803;52.356;5.310;2023-07-22T06:48:36;21.33;;;8.95;;
75932;SDS011;64803;52.356;5.310;2023-07-22T06:51:02;21.77;;;8.35;;
75932;SDS011;64803;52.356;5.310;2023-07-22T06:53:28;20.77;;;8.00;;
75932;SDS011;64803;52.356;5.310;2023-07-22T06:55:54;21.95;;;7.68;;
75932;SDS011;64803;52.356;5.310;2023-07-22T06:58:20;19.80;;;7.80;;
75932;SDS011;64803;52.356;5.310;2023-07-22T07:00:52;19.80;;;7.68;;
75932;SDS011;64803;52.356;5.310;2023-07-22T07:03:18;21.60;;;8.68;;
75932;SDS011;64803;52.356;5.310;2023-07-22T07:05:51;20.65;;;8.20;;
75932;SDS011;64803;52.356;5.310;2023-07-22T07:08:23;24.95;;;8.88;;
75932;SDS011;64803;52.356;5.310;2023-07-22T07:10:49;19.05;;;7.65;;
75932;SDS011;64803;52.356;5.310;2023-07-22T07:13:16;18.38;;;8.73;;
75932;SDS011;64803;52.356;5.310;2023-07-22T07:15:46;23.70;;;9.60;;
75932;SDS011;64803;52.356;5.310;2023-07-22T07:20:43;23.45;;;8.18;;
75932;SDS011;64803;52.356;5.310;2023-07-22T07:23:10;21.00;;;10.63;;
75932;SDS011;64803;52.356;5.310;2023-07-22T07:25:36;27.20;;;9.85;;
75932;SDS011;64803;52.356;5.310;2023-07-22T07:28:03;28.20;;;9.98;;
75932;SDS011;64803;52.356;5.310;2023-07-22T07:30:29;24.65;;;10.70;;
75932;SDS011;64803;52.356;5.310;2023-07-22T07:32:55;23.30;;;9.63;;
75932;SDS011;64803;52.356;5.310;2023-07-22T07:35:21;26.77;;;11.27;;
75932;SDS011;64803;52.356;5.310;2023-07-22T07:37:47;30.27;;;12.07;;
75932;SDS011;64803;52.356;5.310;2023-07-22T07:40:13;26.92;;;11.50;;
75932;SDS011;64803;52.356;5.310;2023-07-22T07:42:39;24.33;;;10.35;;
75932;SDS011;64803;52.356;5.310;2023-07-22T07:45:05;27.55;;;10.88;;
75932;SDS011;64803;52.356;5.310;2023-07-22T07:47:32;26.58;;;10.50;;
75932;SDS011;64803;52.356;5.310;2023-07-22T07:49:58;28.83;;;11.93;;
75932;SDS011;64803;52.356;5.310;2023-07-22T07:52:24;24.55;;;9.48;;
75932;SDS011;64803;52.356;5.310;2023-07-22T07:54:50;21.95;;;9.10;;
75932;SDS011;64803;52.356;5.310;2023-07-22T07:57:16;22.50;;;9.35;;
75932;SDS011;64803;52.356;5.310;2023-07-22T07:59:42;25.15;;;10.73;;
75932;SDS011;64803;52.356;5.310;2023-07-22T08:02:08;21.10;;;9.65;;
75932;SDS011;64803;52.356;5.310;2023-07-22T08:04:35;23.95;;;11.07;;
75932;SDS011;64803;52.356;5.310;2023-07-22T08:07:02;22.63;;;9.55;;
75932;SDS011;64803;52.356;5.310;2023-07-22T08:09:29;22.45;;;9.18;;
75932;SDS011;64803;52.356;5.310;2023-07-22T08:11:55;24.15;;;11.05;;
75932;SDS011;64803;52.356;5.310;2023-07-22T08:14:21;20.85;;;9.10;;
75932;SDS011;64803;52.356;5.310;2023-07-22T08:16:48;24.83;;;11.25;;
75932;SDS011;64803;52.356;5.310;2023-07-22T08:19:14;22.85;;;10.43;;
75932;SDS011;64803;52.356;5.310;2023-07-22T08:21:41;21.35;;;10.27;;
75932;SDS011;64803;52.356;5.310;2023-07-22T08:24:07;25.80;;;10.13;;
75932;SDS011;64803;52.356;5.310;2023-07-22T08:26:33;18.23;;;8.85;;
75932;SDS011;64803;52.356;5.310;2023-07-22T08:28:59;20.70;;;8.85;;
75932;SDS011;64803;52.356;5.310;2023-07-22T08:31:25;20.50;;;7.07;;
75932;SDS011;64803;52.356;5.310;2023-07-22T08:33:51;16.08;;;6.90;;
75932;SDS011;64803;52.356;5.310;2023-07-22T08:36:17;17.48;;;6.75;;
75932;SDS011;64803;52.356;5.310;2023-07-22T08:38:43;18.58;;;7.75;;
75932;SDS011;64803;52.356;5.310;2023-07-22T08:41:09;19.27;;;8.10;;
75932;SDS011;64803;52.356;5.310;2023-07-22T08:43:41;17.27;;;7.78;;
75932;SDS011;64803;52.356;5.310;2023-07-22T08:46:13;16.83;;;8.02;;
75932;SDS011;64803;52.356;5.310;2023-07-22T08:48:41;18.48;;;7.90;;
75932;SDS011;64803;52.356;5.310;2023-07-22T08:51:17;13.43;;;7.03;;
75932;SDS011;64803;52.356;5.310;2023-07-22T08:53:44;12.65;;;6.28;;
75932;SDS011;64803;52.356;5.310;2023-07-22T08:58:37;14.60;;;7.07;;
75932;SDS011;64803;52.356;5.310;2023-07-22T09:01:04;18.60;;;8.18;;
75932;SDS011;64803;52.356;5.310;2023-07-22T09:03:31;15.95;;;8.32;;
75932;SDS011;64803;52.356;5.310;2023-07-22T09:05:58;18.92;;;8.90;;
75932;SDS011;64803;52.356;5.310;2023-07-22T09:08:24;21.08;;;9.82;;
75932;SDS011;64803;52.356;5.310;2023-07-22T09:10:51;17.42;;;9.20;;
75932;SDS011;64803;52.356;5.310;2023-07-22T09:13:17;21.48;;;11.32;;
75932;SDS011;64803;52.356;5.310;2023-07-22T09:15:45;22.17;;;10.32;;
75932;SDS011;64803;52.356;5.310;2023-07-22T09:18:13;20.92;;;9.32;;
75932;SDS011;64803;52.356;5.310;2023-07-22T09:20:41;16.33;;;9.27;;
75932;SDS011;64803;52.356;5.310;2023-07-22T09:23:08;19.45;;;11.38;;
75932;SDS011;64803;52.356;5.310;2023-07-22T09:25:34;21.75;;;11.48;;
75932;SDS011;64803;52.356;5.310;2023-07-22T09:28:00;18.45;;;11.02;;
75932;SDS011;64803;52.356;5.310;2023-07-22T09:30:34;21.63;;;10.60;;
75932;SDS011;64803;52.356;5.310;2023-07-22T09:33:02;21.88;;;12.02;;
75932;SDS011;64803;52.356;5.310;2023-07-22T09:35:29;21.13;;;11.38;;
75932;SDS011;64803;52.356;5.310;2023-07-22T09:37:58;22.60;;;12.50;;
75932;SDS011;64803;52.356;5.310;2023-07-22T09:40:27;18.83;;;11.48;;
75932;SDS011;64803;52.356;5.310;2023-07-22T09:42:54;21.92;;;11.57;;
75932;SDS011;64803;52.356;5.310;2023-07-22T09:45:25;22.98;;;12.90;;
75932;SDS011;64803;52.356;5.310;2023-07-22T09:47:52;21.85;;;12.07;;
75932;SDS011;64803;52.356;5.310;2023-07-22T09:50:20;22.75;;;12.32;;
75932;SDS011;64803;52.356;5.310;2023-07-22T09:52:54;20.00;;;10.48;;
75932;SDS011;64803;52.356;5.310;2023-07-22T09:55:22;22.92;;;11.13;;
75932;SDS011;64803;52.356;5.310;2023-07-22T09:57:53;19.10;;;11.55;;
75932;SDS011;64803;52.356;5.310;2023-07-22T10:00:30;21.77;;;10.93;;
75932;SDS011;64803;52.356;5.310;2023-07-22T10:02:59;19.67;;;11.32;;
75932;SDS011;64803;52.356;5.310;2023-07-22T10:05:28;19.98;;;12.13;;
75932;SDS011;64803;52.356;5.310;2023-07-22T10:07:57;19.83;;;11.85;;
75932;SDS011;64803;52.356;5.310;2023-07-22T10:10:31;23.10;;;12.25;;
75932;SDS011;64803;52.356;5.310;2023-07-22T10:12:58;26.40;;;12.65;;
75932;SDS011;64803;52.356;5.310;2023-07-22T10:15:25;24.27;;;13.10;;
75932;SDS011;64803;52.356;5.310;2023-07-22T10:17:54;25.35;;;12.30;;
75932;SDS011;64803;52.356;5.310;2023-07-22T10:20:22;21.70;;;10.82;;
75932;SDS011;64803;52.356;5.310;2023-07-22T10:22:49;21.55;;;12.52;;
75932;SDS011;64803;52.356;5.310;2023-07-22T10:25:17;19.98;;;12.02;;
75932;SDS011;64803;52.356;5.310;2023-07-22T10:27:44;20.38;;;10.82;;
75932;SDS011;64803;52.356;5.310;2023-07-22T10:30:14;17.33;;;11.02;;
75932;SDS011;64803;52.356;5.310;2023-07-22T10:32:42;20.52;;;11.80;;
75932;SDS011;64803;52.356;5.310;2023-07-22T10:35:12;17.02;;;10.82;;
75932;SDS011;64803;52.356;5.310;2023-07-22T10:37:46;18.88;;;9.82;;
75932;SDS011;64803;52.356;5.310;2023-07-22T10:42:51;14.32;;;8.30;;
75932;SDS011;64803;52.356;5.310;2023-07-22T10:48:00;20.35;;;9.65;;
75932;SDS011;64803;52.356;5.310;2023-07-22T10:50:37;17.60;;;9.20;;
75932;SDS011;64803;52.356;5.310;2023-07-22T10:53:04;12.10;;;5.38;;
75932;SDS011;64803;52.356;5.310;2023-07-22T10:55:30;14.75;;;7.32;;
75932;SDS011;64803;52.356;5.310;2023-07-22T10:57:58;16.48;;;6.05;;
75932;SDS011;64803;52.356;5.310;2023-07-22T11:00:31;11.00;;;5.05;;
75932;SDS011;64803;52.356;5.310;2023-07-22T11:03:10;13.60;;;5.78;;
75932;SDS011;64803;52.356;5.310;2023-07-22T11:11:07;7.60;;;3.28;;
75932;SDS011;64803;52.356;5.310;2023-07-22T11:13:39;8.88;;;2.72;;
75932;SDS011;64803;52.356;5.310;2023-07-22T11:16:09;9.57;;;3.38;;
75932;SDS011;64803;52.356;5.310;2023-07-22T11:18:37;9.00;;;3.30;;
75932;SDS011;64803;52.356;5.310;2023-07-22T11:21:10;7.57;;;3.05;;
75932;SDS011;64803;52.356;5.310;2023-07-22T11:23:37;8.98;;;3.55;;
75932;SDS011;64803;52.356;5.310;2023-07-22T11:26:03;8.95;;;2.97;;
75932;SDS011;64803;52.356;5.310;2023-07-22T11:28:30;8.98;;;3.88;;
75932;SDS011;64803;52.356;5.310;2023-07-22T11:30:56;9.43;;;3.90;;
75932;SDS011;64803;52.356;5.310;2023-07-22T11:33:24;7.57;;;3.33;;
75932;SDS011;64803;52.356;5.310;2023-07-22T11:35:50;10.10;;;3.53;;
75932;SDS011;64803;52.356;5.310;2023-07-22T11:38:16;9.05;;;3.60;;
75932;SDS011;64803;52.356;5.310;2023-07-22T11:40:42;10.15;;;3.60;;
75932;SDS011;64803;52.356;5.310;2023-07-22T11:43:08;8.60;;;3.40;;
75932;SDS011;64803;52.356;5.310;2023-07-22T11:45:37;8.75;;;3.33;;
75932;SDS011;64803;52.356;5.310;2023-07-22T11:48:08;10.48;;;3.50;;
75932;SDS011;64803;52.356;5.310;2023-07-22T11:50:36;7.10;;;2.90;;
75932;SDS011;64803;52.356;5.310;2023-07-22T11:53:02;10.45;;;3.78;;
75932;SDS011;64803;52.356;5.310;2023-07-22T11:55:28;8.02;;;2.90;;
75932;SDS011;64803;52.356;5.310;2023-07-22T11:57:54;7.22;;;2.75;;
75932;SDS011;64803;52.356;5.310;2023-07-22T12:00:20;9.23;;;3.15;;
75932;SDS011;64803;52.356;5.310;2023-07-22T12:02:47;11.38;;;3.00;;
75932;SDS011;64803;52.356;5.310;2023-07-22T12:05:20;7.97;;;3.60;;
75932;SDS011;64803;52.356;5.310;2023-07-22T12:07:47;7.45;;;2.78;;
75932;SDS011;64803;52.356;5.310;2023-07-22T12:10:15;7.63;;;2.90;;
75932;SDS011;64803;52.356;5.310;2023-07-22T12:12:42;7.38;;;2.67;;
75932;SDS011;64803;52.356;5.310;2023-07-22T12:15:12;7.18;;;2.83;;
75932;SDS011;64803;52.356;5.310;2023-07-22T12:18:04;9.55;;;3.10;;
75932;SDS011;64803;52.356;5.310;2023-07-22T12:20:33;8.77;;;2.60;;
75932;SDS011;64803;52.356;5.310;2023-07-22T12:23:01;7.47;;;2.38;;
75932;SDS011;64803;52.356;5.310;2023-07-22T12:25:27;9.27;;;2.28;;
75932;SDS011;64803;52.356;5.310;2023-07-22T12:27:53;7.95;;;2.50;;
75932;SDS011;64803;52.356;5.310;2023-07-22T12:30:19;6.88;;;2.47;;
75932;SDS011;64803;52.356;5.310;2023-07-22T12:32:46;10.57;;;2.95;;
75932;SDS011;64803;52.356;5.310;2023-07-22T12:35:13;9.60;;;2.72;;
75932;SDS011;64803;52.356;5.310;2023-07-22T12:37:39;8.38;;;2.47;;
75932;SDS011;64803;52.356;5.310;2023-07-22T12:40:05;11.07;;;2.40;;
75932;SDS011;64803;52.356;5.310;2023-07-22T12:42:34;8.63;;;2.20;;
75932;SDS011;64803;52.356;5.310;2023-07-22T12:45:01;5.30;;;1.73;;
75932;SDS011;64803;52.356;5.310;2023-07-22T12:47:28;5.82;;;2.08;;
75932;SDS011;64803;52.356;5.310;2023-07-22T12:49:54;6.15;;;1.70;;
75932;SDS011;64803;52.356;5.310;2023-07-22T12:52:20;5.63;;;2.00;;
75932;SDS011;64803;52.356;5.310;2023-07-22T12:54:46;5.30;;;1.55;;
75932;SDS011;64803;52.356;5.310;2023-07-22T12:57:12;5.95;;;1.55;;
75932;SDS011;64803;52.356;5.310;2023-07-22T12:59:38;5.03;;;1.60;;
75932;SDS011;64803;52.356;5.310;2023-07-22T13:02:04;4.70;;;1.42;;
75932;SDS011;64803;52.356;5.310;2023-07-22T13:04:30;4.97;;;1.50;;
75932;SDS011;64803;52.356;5.310;2023-07-22T13:06:56;4.15;;;1.23;;
75932;SDS011;64803;52.356;5.310;2023-07-22T13:09:23;4.45;;;1.40;;
75932;SDS011;64803;52.356;5.310;2023-07-22T13:11:49;3.78;;;1.00;;
75932;SDS011;64803;52.356;5.310;2023-07-22T13:14:15;5.65;;;1.50;;
75932;SDS011;64803;52.356;5.310;2023-07-22T13:16:44;4.82;;;1.15;;
75932;SDS011;64803;52.356;5.310;2023-07-22T13:19:10;6.95;;;1.80;;
75932;SDS011;64803;52.356;5.310;2023-07-22T13:21:36;4.20;;;1.25;;
75932;SDS011;64803;52.356;5.310;2023-07-22T13:24:02;6.68;;;1.55;;
75932;SDS011;64803;52.356;5.310;2023-07-22T13:26:28;2.97;;;0.80;;
75932;SDS011;64803;52.356;5.310;2023-07-22T13:28:54;4.13;;;1.13;;
75932;SDS011;64803;52.356;5.310;2023-07-22T13:31:20;3.35;;;1.35;;
75932;SDS011;64803;52.356;5.310;2023-07-22T13:33:46;3.55;;;1.10;;
75932;SDS011;64803;52.356;5.310;2023-07-22T13:36:12;4.85;;;1.25;;
75932;SDS011;64803;52.356;5.310;2023-07-22T13:38:38;5.70;;;1.30;;
75932;SDS011;64803;52.356;5.310;2023-07-22T13:41:04;5.43;;;1.40;;
75932;SDS011;64803;52.356;5.310;2023-07-22T13:43:30;4.35;;;1.33;;
75932;SDS011;64803;52.356;5.310;2023-07-22T13:45:56;6.13;;;1.70;;
75932;SDS011;64803;52.356;5.310;2023-07-22T13:48:23;4.45;;;1.30;;
75932;SDS011;64803;52.356;5.310;2023-07-22T13:50:49;6.25;;;1.80;;
75932;SDS011;64803;52.356;5.310;2023-07-22T13:53:15;6.45;;;1.60;;
75932;SDS011;64803;52.356;5.310;2023-07-22T13:55:41;3.97;;;1.38;;
75932;SDS011;64803;52.356;5.310;2023-07-22T13:58:07;7.22;;;1.52;;
75932;SDS011;64803;52.356;5.310;2023-07-22T14:00:33;4.97;;;1.33;;
75932;SDS011;64803;52.356;5.310;2023-07-22T14:02:59;3.88;;;1.30;;
75932;SDS011;64803;52.356;5.310;2023-07-22T14:05:25;5.72;;;1.23;;
75932;SDS011;64803;52.356;5.310;2023-07-22T14:07:52;7.07;;;1.85;;
75932;SDS011;64803;52.356;5.310;2023-07-22T14:10:18;4.82;;;1.48;;
75932;SDS011;64803;52.356;5.310;2023-07-22T14:12:44;6.57;;;1.40;;
75932;SDS011;64803;52.356;5.310;2023-07-22T14:15:10;3.78;;;1.25;;
75932;SDS011;64803;52.356;5.310;2023-07-22T14:17:36;5.32;;;1.50;;
75932;SDS011;64803;52.356;5.310;2023-07-22T14:20:04;6.95;;;1.42;;
75932;SDS011;64803;52.356;5.310;2023-07-22T14:22:30;5.78;;;1.65;;
75932;SDS011;64803;52.356;5.310;2023-07-22T14:24:56;8.43;;;1.40;;
75932;SDS011;64803;52.356;5.310;2023-07-22T14:27:22;5.40;;;1.55;;
75932;SDS011;64803;52.356;5.310;2023-07-22T14:29:48;6.03;;;1.33;;
75932;SDS011;64803;52.356;5.310;2023-07-22T14:32:15;6.60;;;1.50;;
75932;SDS011;64803;52.356;5.310;2023-07-22T14:37:08;5.57;;;1.60;;
75932;SDS011;64803;52.356;5.310;2023-07-22T14:39:33;6.30;;;1.63;;
75932;SDS011;64803;52.356;5.310;2023-07-22T14:42:00;5.88;;;1.60;;
75932;SDS011;64803;52.356;5.310;2023-07-22T14:44:26;4.70;;;1.50;;
75932;SDS011;64803;52.356;5.310;2023-07-22T14:46:52;5.25;;;1.30;;
75932;SDS011;64803;52.356;5.310;2023-07-22T14:49:18;6.30;;;1.52;;
75932;SDS011;64803;52.356;5.310;2023-07-22T14:51:44;4.68;;;1.50;;
75932;SDS011;64803;52.356;5.310;2023-07-22T14:54:10;7.03;;;1.40;;